sensor_id;sensor_type;location;lat;lon;timestamp;P1;durP1;ratioP1;P2;durP2;ratioP2
23388;SDS011;11867;51.198;11.966;2022-11-02T00:04:00;6.78;;;1.83;;
23388;SDS011;11867;51.198;11.966;2022-11-02T00:09:04;6.45;;;1.67;;
23388;SDS011;11867;51.198;11.966;2022-11-02T00:14:07;4.28;;;1.90;;
23388;SDS011;11867;51.198;11.966;2022-11-02T00:19:09;4.65;;;2.00;;
23388;SDS011;11867;51.198;11.966;2022-11-02T00:24:14;7.93;;;1.67;;
23388;SDS011;11867;51.198;11.966;2022-11-02T00:29:16;7.57;;;2.15;;
23388;SDS011;11867;51.198;11.966;2022-11-02T00:34:21;5.47;;;1.40;;
23388;SDS011;11867;51.198;11.966;2022-11-02T00:39:25;5.13;;;1.30;;
23388;SDS011;11867;51.198;11.966;2022-11-02T00:44:27;6.35;;;1.73;;
23388;SDS011;11867;51.198;11.966;2022-11-02T00:49:30;7.60;;;0.95;;
23388;SDS011;11867;51.198;11.966;2022-11-02T00:54:34;6.10;;;1.52;;
23388;SDS011;11867;51.198;11.966;2022-11-02T00:59:36;5.35;;;1.35;;
23388;SDS011;11867;51.198;11.966;2022-11-02T01:04:39;6.47;;;1.65;;
23388;SDS011;11867;51.198;11.966;2022-11-02T01:09:43;10.88;;;2.08;;
23388;SDS011;11867;51.198;11.966;2022-11-02T01:14:46;8.40;;;2.05;;
23388;SDS011;11867;51.198;11.966;2022-11-02T01:19:49;7.43;;;1.90;;
23388;SDS011;11867;51.198;11.966;2022-11-02T01:24:53;7.78;;;2.33;;
23388;SDS011;11867;51.198;11.966;2022-11-02T01:29:56;3.75;;;0.98;;
23388;SDS011;11867;51.198;11.966;2022-11-02T01:34:59;4.80;;;1.50;;
23388;SDS011;11867;51.198;11.966;2022-11-02T01:40:04;3.15;;;1.45;;
23388;SDS011;11867;51.198;11.966;2022-11-02T01:45:08;5.50;;;1.10;;
23388;SDS011;11867;51.198;11.966;2022-11-02T01:50:15;6.13;;;1.42;;
23388;SDS011;11867;51.198;11.966;2022-11-02T01:55:23;7.85;;;1.20;;
23388;SDS011;11867;51.198;11.966;2022-11-02T02:00:29;4.80;;;1.25;;
23388;SDS011;11867;51.198;11.966;2022-11-02T02:05:33;2.83;;;1.25;;
23388;SDS011;11867;51.198;11.966;2022-11-02T02:10:38;8.23;;;1.77;;
23388;SDS011;11867;51.198;11.966;2022-11-02T02:15:43;5.32;;;1.52;;
23388;SDS011;11867;51.198;11.966;2022-11-02T02:20:58;6.30;;;1.40;;
23388;SDS011;11867;51.198;11.966;2022-11-02T02:26:30;3.55;;;1.20;;
23388;SDS011;11867;51.198;11.966;2022-11-02T02:31:59;7.25;;;1.60;;
23388;SDS011;11867;51.198;11.966;2022-11-02T02:37:08;6.07;;;1.30;;
23388;SDS011;11867;51.198;11.966;2022-11-02T02:42:17;8.18;;;1.33;;
23388;SDS011;11867;51.198;11.966;2022-11-02T02:47:24;7.28;;;1.85;;
23388;SDS011;11867;51.198;11.966;2022-11-02T02:52:31;6.70;;;1.50;;
23388;SDS011;11867;51.198;11.966;2022-11-02T02:57:37;5.18;;;1.30;;
23388;SDS011;11867;51.198;11.966;2022-11-02T03:02:42;3.03;;;1.30;;
23388;SDS011;11867;51.198;11.966;2022-11-02T03:08:02;8.07;;;2.50;;
23388;SDS011;11867;51.198;11.966;2022-11-02T03:13:10;4.80;;;2.17;;
23388;SDS011;11867;51.198;11.966;2022-11-02T03:23:32;7.97;;;1.95;;
23388;SDS011;11867;51.198;11.966;2022-11-02T03:28:41;3.78;;;1.60;;
23388;SDS011;11867;51.198;11.966;2022-11-02T03:33:53;8.05;;;2.15;;
23388;SDS011;11867;51.198;11.966;2022-11-02T03:39:03;6.18;;;2.33;;
23388;SDS011;11867;51.198;11.966;2022-11-02T03:44:10;5.97;;;2.40;;
23388;SDS011;11867;51.198;11.966;2022-11-02T03:49:17;8.18;;;1.77;;
23388;SDS011;11867;51.198;11.966;2022-11-02T03:54:24;5.03;;;1.55;;
23388;SDS011;11867;51.198;11.966;2022-11-02T03:59:36;5.68;;;1.55;;
23388;SDS011;11867;51.198;11.966;2022-11-02T04:04:47;5.00;;;1.50;;
23388;SDS011;11867;51.198;11.966;2022-11-02T04:09:51;5.50;;;1.75;;
23388;SDS011;11867;51.198;11.966;2022-11-02T04:14:53;7.38;;;1.60;;
23388;SDS011;11867;51.198;11.966;2022-11-02T04:19:57;8.68;;;1.67;;
23388;SDS011;11867;51.198;11.966;2022-11-02T04:25:00;6.22;;;1.60;;
23388;SDS011;11867;51.198;11.966;2022-11-02T04:30:19;5.57;;;1.65;;
23388;SDS011;11867;51.198;11.966;2022-11-02T04:35:25;3.72;;;1.27;;
23388;SDS011;11867;51.198;11.966;2022-11-02T04:40:28;6.53;;;1.00;;
23388;SDS011;11867;51.198;11.966;2022-11-02T04:45:31;10.63;;;1.35;;
23388;SDS011;11867;51.198;11.966;2022-11-02T04:50:35;7.18;;;1.30;;
23388;SDS011;11867;51.198;11.966;2022-11-02T05:00:40;4.35;;;1.10;;
23388;SDS011;11867;51.198;11.966;2022-11-02T05:05:44;8.68;;;1.80;;
23388;SDS011;11867;51.198;11.966;2022-11-02T05:10:47;9.23;;;1.95;;
23388;SDS011;11867;51.198;11.966;2022-11-02T05:15:50;6.18;;;1.40;;
23388;SDS011;11867;51.198;11.966;2022-11-02T05:20:56;8.80;;;1.50;;
23388;SDS011;11867;51.198;11.966;2022-11-02T05:26:01;5.70;;;1.38;;
23388;SDS011;11867;51.198;11.966;2022-11-02T05:31:05;6.05;;;1.38;;
23388;SDS011;11867;51.198;11.966;2022-11-02T05:36:09;9.30;;;1.48;;
23388;SDS011;11867;51.198;11.966;2022-11-02T05:41:12;4.38;;;1.40;;
23388;SDS011;11867;51.198;11.966;2022-11-02T05:46:16;7.20;;;1.37;;
23388;SDS011;11867;51.198;11.966;2022-11-02T05:51:20;5.38;;;1.20;;
23388;SDS011;11867;51.198;11.966;2022-11-02T05:56:23;9.82;;;1.40;;
23388;SDS011;11867;51.198;11.966;2022-11-02T06:01:25;4.43;;;1.00;;
23388;SDS011;11867;51.198;11.966;2022-11-02T06:06:29;6.78;;;1.50;;
23388;SDS011;11867;51.198;11.966;2022-11-02T06:11:33;7.70;;;1.45;;
23388;SDS011;11867;51.198;11.966;2022-11-02T06:16:36;6.43;;;1.50;;
23388;SDS011;11867;51.198;11.966;2022-11-02T06:21:40;8.60;;;1.50;;
23388;SDS011;11867;51.198;11.966;2022-11-02T06:26:47;4.90;;;1.10;;
23388;SDS011;11867;51.198;11.966;2022-11-02T06:31:50;6.70;;;1.33;;
23388;SDS011;11867;51.198;11.966;2022-11-02T06:36:54;5.95;;;1.23;;
23388;SDS011;11867;51.198;11.966;2022-11-02T06:41:56;5.88;;;1.60;;
23388;SDS011;11867;51.198;11.966;2022-11-02T06:46:59;13.40;;;1.98;;
23388;SDS011;11867;51.198;11.966;2022-11-02T06:52:03;7.32;;;1.73;;
23388;SDS011;11867;51.198;11.966;2022-11-02T06:57:06;5.95;;;2.08;;
23388;SDS011;11867;51.198;11.966;2022-11-02T07:02:08;5.22;;;1.30;;
23388;SDS011;11867;51.198;11.966;2022-11-02T07:07:12;3.53;;;1.30;;
23388;SDS011;11867;51.198;11.966;2022-11-02T07:12:15;5.03;;;1.60;;
23388;SDS011;11867;51.198;11.966;2022-11-02T07:17:23;3.78;;;1.30;;
23388;SDS011;11867;51.198;11.966;2022-11-02T07:22:33;6.97;;;2.33;;
23388;SDS011;11867;51.198;11.966;2022-11-02T07:27:39;5.68;;;1.55;;
23388;SDS011;11867;51.198;11.966;2022-11-02T07:32:41;7.57;;;1.67;;
23388;SDS011;11867;51.198;11.966;2022-11-02T07:37:54;8.07;;;1.65;;
23388;SDS011;11867;51.198;11.966;2022-11-02T07:42:58;8.38;;;1.88;;
23388;SDS011;11867;51.198;11.966;2022-11-02T07:48:01;5.90;;;1.45;;
23388;SDS011;11867;51.198;11.966;2022-11-02T07:53:05;5.32;;;1.75;;
23388;SDS011;11867;51.198;11.966;2022-11-02T08:03:17;7.22;;;1.80;;
23388;SDS011;11867;51.198;11.966;2022-11-02T08:08:21;9.30;;;2.00;;
23388;SDS011;11867;51.198;11.966;2022-11-02T08:13:25;10.52;;;1.70;;
23388;SDS011;11867;51.198;11.966;2022-11-02T08:18:33;9.77;;;2.08;;
23388;SDS011;11867;51.198;11.966;2022-11-02T08:23:37;5.90;;;1.48;;
23388;SDS011;11867;51.198;11.966;2022-11-02T08:28:39;6.43;;;1.83;;
23388;SDS011;11867;51.198;11.966;2022-11-02T08:33:42;9.95;;;1.65;;
23388;SDS011;11867;51.198;11.966;2022-11-02T08:38:46;6.47;;;2.03;;
23388;SDS011;11867;51.198;11.966;2022-11-02T08:43:49;5.18;;;1.50;;
23388;SDS011;11867;51.198;11.966;2022-11-02T08:48:52;5.60;;;2.05;;
23388;SDS011;11867;51.198;11.966;2022-11-02T08:53:56;12.55;;;2.05;;
23388;SDS011;11867;51.198;11.966;2022-11-02T08:58:58;7.53;;;1.73;;
23388;SDS011;11867;51.198;11.966;2022-11-02T09:04:01;6.55;;;1.50;;
23388;SDS011;11867;51.198;11.966;2022-11-02T09:09:05;10.85;;;1.92;;
23388;SDS011;11867;51.198;11.966;2022-11-02T09:14:08;7.50;;;1.60;;
23388;SDS011;11867;51.198;11.966;2022-11-02T09:19:10;5.95;;;1.35;;
23388;SDS011;11867;51.198;11.966;2022-11-02T09:24:14;7.00;;;1.50;;
23388;SDS011;11867;51.198;11.966;2022-11-02T09:29:17;6.53;;;1.58;;
23388;SDS011;11867;51.198;11.966;2022-11-02T09:34:20;5.07;;;1.60;;
23388;SDS011;11867;51.198;11.966;2022-11-02T09:39:24;8.35;;;1.20;;
23388;SDS011;11867;51.198;11.966;2022-11-02T09:44:27;6.10;;;1.30;;
23388;SDS011;11867;51.198;11.966;2022-11-02T09:49:37;4.82;;;1.77;;
23388;SDS011;11867;51.198;11.966;2022-11-02T09:54:44;6.07;;;1.60;;
23388;SDS011;11867;51.198;11.966;2022-11-02T09:59:51;2.97;;;1.10;;
23388;SDS011;11867;51.198;11.966;2022-11-02T10:04:58;5.13;;;1.50;;
23388;SDS011;11867;51.198;11.966;2022-11-02T10:10:13;5.07;;;1.52;;
23388;SDS011;11867;51.198;11.966;2022-11-02T10:15:20;8.23;;;1.73;;
23388;SDS011;11867;51.198;11.966;2022-11-02T10:20:27;8.45;;;1.48;;
23388;SDS011;11867;51.198;11.966;2022-11-02T10:25:37;6.07;;;1.25;;
23388;SDS011;11867;51.198;11.966;2022-11-02T10:30:39;4.82;;;1.33;;
23388;SDS011;11867;51.198;11.966;2022-11-02T10:35:46;3.95;;;1.58;;
23388;SDS011;11867;51.198;11.966;2022-11-02T10:41:25;4.10;;;1.27;;
23388;SDS011;11867;51.198;11.966;2022-11-02T10:46:41;3.88;;;1.23;;
23388;SDS011;11867;51.198;11.966;2022-11-02T10:51:49;5.10;;;1.30;;
23388;SDS011;11867;51.198;11.966;2022-11-02T10:56:53;4.43;;;1.33;;
23388;SDS011;11867;51.198;11.966;2022-11-02T11:02:04;3.55;;;1.10;;
23388;SDS011;11867;51.198;11.966;2022-11-02T11:07:14;3.28;;;1.40;;
23388;SDS011;11867;51.198;11.966;2022-11-02T11:12:28;6.05;;;2.05;;
23388;SDS011;11867;51.198;11.966;2022-11-02T11:17:33;4.07;;;1.83;;
23388;SDS011;11867;51.198;11.966;2022-11-02T11:23:17;5.57;;;2.13;;
23388;SDS011;11867;51.198;11.966;2022-11-02T11:28:24;4.93;;;1.73;;
23388;SDS011;11867;51.198;11.966;2022-11-02T11:33:28;5.13;;;0.88;;
23388;SDS011;11867;51.198;11.966;2022-11-02T11:38:33;3.15;;;1.00;;
23388;SDS011;11867;51.198;11.966;2022-11-02T11:43:37;4.68;;;1.42;;
23388;SDS011;11867;51.198;11.966;2022-11-02T11:48:41;4.68;;;1.25;;
23388;SDS011;11867;51.198;11.966;2022-11-02T11:54:02;3.05;;;1.15;;
23388;SDS011;11867;51.198;11.966;2022-11-02T11:59:16;5.53;;;1.30;;
23388;SDS011;11867;51.198;11.966;2022-11-02T12:04:34;2.53;;;1.30;;
23388;SDS011;11867;51.198;11.966;2022-11-02T12:09:39;4.57;;;1.30;;
23388;SDS011;11867;51.198;11.966;2022-11-02T12:14:49;4.80;;;1.70;;
23388;SDS011;11867;51.198;11.966;2022-11-02T12:20:17;2.53;;;1.17;;
23388;SDS011;11867;51.198;11.966;2022-11-02T12:30:55;1.77;;;0.90;;
23388;SDS011;11867;51.198;11.966;2022-11-02T12:36:18;4.78;;;1.15;;
23388;SDS011;11867;51.198;11.966;2022-11-02T12:41:39;3.42;;;1.27;;
23388;SDS011;11867;51.198;11.966;2022-11-02T12:46:56;3.20;;;1.20;;
23388;SDS011;11867;51.198;11.966;2022-11-02T12:52:12;8.98;;;1.30;;
23388;SDS011;11867;51.198;11.966;2022-11-02T12:57:26;4.88;;;1.02;;
23388;SDS011;11867;51.198;11.966;2022-11-02T13:02:36;4.40;;;1.10;;
23388;SDS011;11867;51.198;11.966;2022-11-02T13:07:46;4.43;;;1.33;;
23388;SDS011;11867;51.198;11.966;2022-11-02T13:12:55;4.00;;;1.25;;
23388;SDS011;11867;51.198;11.966;2022-11-02T13:18:03;2.92;;;1.27;;
23388;SDS011;11867;51.198;11.966;2022-11-02T13:23:13;4.95;;;2.08;;
23388;SDS011;11867;51.198;11.966;2022-11-02T13:28:23;6.03;;;1.23;;
23388;SDS011;11867;51.198;11.966;2022-11-02T13:33:35;2.63;;;0.70;;
23388;SDS011;11867;51.198;11.966;2022-11-02T13:38:43;4.78;;;1.33;;
23388;SDS011;11867;51.198;11.966;2022-11-02T13:43:53;5.22;;;1.20;;
23388;SDS011;11867;51.198;11.966;2022-11-02T13:49:34;5.93;;;1.70;;
23388;SDS011;11867;51.198;11.966;2022-11-02T13:54:41;6.30;;;1.10;;
23388;SDS011;11867;51.198;11.966;2022-11-02T13:59:46;4.90;;;0.95;;
23388;SDS011;11867;51.198;11.966;2022-11-02T14:04:50;4.83;;;1.37;;
23388;SDS011;11867;51.198;11.966;2022-11-02T14:09:55;7.70;;;1.83;;
23388;SDS011;11867;51.198;11.966;2022-11-02T14:20:50;6.32;;;1.15;;
23388;SDS011;11867;51.198;11.966;2022-11-02T14:25:52;2.08;;;0.90;;
23388;SDS011;11867;51.198;11.966;2022-11-02T14:30:56;5.75;;;1.00;;
23388;SDS011;11867;51.198;11.966;2022-11-02T14:36:37;5.32;;;1.05;;
23388;SDS011;11867;51.198;11.966;2022-11-02T14:42:02;5.18;;;0.95;;
23388;SDS011;11867;51.198;11.966;2022-11-02T14:47:12;2.13;;;0.90;;
23388;SDS011;11867;51.198;11.966;2022-11-02T14:52:23;9.45;;;1.00;;
23388;SDS011;11867;51.198;11.966;2022-11-02T14:57:29;2.58;;;0.90;;
23388;SDS011;11867;51.198;11.966;2022-11-02T15:02:35;7.22;;;0.80;;
23388;SDS011;11867;51.198;11.966;2022-11-02T15:07:47;5.50;;;1.00;;
23388;SDS011;11867;51.198;11.966;2022-11-02T15:18:35;3.38;;;1.02;;
23388;SDS011;11867;51.198;11.966;2022-11-02T15:23:40;5.68;;;1.20;;
23388;SDS011;11867;51.198;11.966;2022-11-02T15:28:52;6.88;;;1.58;;
23388;SDS011;11867;51.198;11.966;2022-11-02T15:33:58;4.65;;;1.40;;
23388;SDS011;11867;51.198;11.966;2022-11-02T15:39:05;8.82;;;0.93;;
23388;SDS011;11867;51.198;11.966;2022-11-02T15:44:17;3.45;;;1.10;;
23388;SDS011;11867;51.198;11.966;2022-11-02T15:49:30;5.85;;;1.05;;
23388;SDS011;11867;51.198;11.966;2022-11-02T15:54:48;5.60;;;1.00;;
23388;SDS011;11867;51.198;11.966;2022-11-02T16:00:11;4.82;;;1.48;;
23388;SDS011;11867;51.198;11.966;2022-11-02T16:05:19;5.13;;;1.27;;
23388;SDS011;11867;51.198;11.966;2022-11-02T16:10:27;5.88;;;1.50;;
23388;SDS011;11867;51.198;11.966;2022-11-02T16:15:31;5.45;;;1.30;;
23388;SDS011;11867;51.198;11.966;2022-11-02T16:20:34;4.88;;;1.42;;
23388;SDS011;11867;51.198;11.966;2022-11-02T16:25:42;5.03;;;1.40;;
23388;SDS011;11867;51.198;11.966;2022-11-02T16:31:00;7.38;;;1.40;;
23388;SDS011;11867;51.198;11.966;2022-11-02T16:36:16;10.55;;;2.67;;
23388;SDS011;11867;51.198;11.966;2022-11-02T16:41:22;5.20;;;1.33;;
23388;SDS011;11867;51.198;11.966;2022-11-02T16:46:27;4.05;;;1.50;;
23388;SDS011;11867;51.198;11.966;2022-11-02T16:51:32;7.25;;;2.17;;
23388;SDS011;11867;51.198;11.966;2022-11-02T16:56:36;8.80;;;1.58;;
23388;SDS011;11867;51.198;11.966;2022-11-02T17:01:39;3.50;;;1.30;;
23388;SDS011;11867;51.198;11.966;2022-11-02T17:06:44;8.02;;;1.70;;
23388;SDS011;11867;51.198;11.966;2022-11-02T17:11:49;5.17;;;1.50;;
23388;SDS011;11867;51.198;11.966;2022-11-02T17:16:55;6.40;;;1.90;;
23388;SDS011;11867;51.198;11.966;2022-11-02T17:22:03;8.63;;;2.13;;
23388;SDS011;11867;51.198;11.966;2022-11-02T17:27:17;9.75;;;2.20;;
23388;SDS011;11867;51.198;11.966;2022-11-02T17:32:26;6.72;;;1.92;;
23388;SDS011;11867;51.198;11.966;2022-11-02T17:37:30;6.68;;;1.95;;
23388;SDS011;11867;51.198;11.966;2022-11-02T17:42:35;4.87;;;1.40;;
23388;SDS011;11867;51.198;11.966;2022-11-02T17:47:56;4.30;;;1.85;;
23388;SDS011;11867;51.198;11.966;2022-11-02T17:53:00;6.75;;;1.98;;
23388;SDS011;11867;51.198;11.966;2022-11-02T17:58:05;4.67;;;1.67;;
23388;SDS011;11867;51.198;11.966;2022-11-02T18:03:11;4.03;;;1.77;;
23388;SDS011;11867;51.198;11.966;2022-11-02T18:08:15;7.00;;;1.88;;
23388;SDS011;11867;51.198;11.966;2022-11-02T18:13:20;9.50;;;2.17;;
23388;SDS011;11867;51.198;11.966;2022-11-02T18:18:25;7.55;;;3.20;;
23388;SDS011;11867;51.198;11.966;2022-11-02T18:23:27;5.55;;;1.77;;
23388;SDS011;11867;51.198;11.966;2022-11-02T18:28:32;4.25;;;2.28;;
23388;SDS011;11867;51.198;11.966;2022-11-02T18:33:35;2.60;;;1.27;;
23388;SDS011;11867;51.198;11.966;2022-11-02T18:38:38;6.40;;;1.70;;
23388;SDS011;11867;51.198;11.966;2022-11-02T18:43:42;6.22;;;1.63;;
23388;SDS011;11867;51.198;11.966;2022-11-02T18:48:45;4.00;;;1.35;;
23388;SDS011;11867;51.198;11.966;2022-11-02T18:53:54;5.32;;;1.50;;
23388;SDS011;11867;51.198;11.966;2022-11-02T18:58:59;4.25;;;1.40;;
23388;SDS011;11867;51.198;11.966;2022-11-02T19:04:02;5.15;;;1.95;;
23388;SDS011;11867;51.198;11.966;2022-11-02T19:09:05;8.07;;;2.05;;
23388;SDS011;11867;51.198;11.966;2022-11-02T19:14:22;5.50;;;1.83;;
23388;SDS011;11867;51.198;11.966;2022-11-02T19:19:25;4.88;;;1.35;;
23388;SDS011;11867;51.198;11.966;2022-11-02T19:24:28;6.65;;;2.20;;
23388;SDS011;11867;51.198;11.966;2022-11-02T19:29:32;3.90;;;1.92;;
23388;SDS011;11867;51.198;11.966;2022-11-02T19:34:35;3.38;;;1.33;;
23388;SDS011;11867;51.198;11.966;2022-11-02T19:39:38;7.53;;;2.22;;
23388;SDS011;11867;51.198;11.966;2022-11-02T19:44:42;6.68;;;2.67;;
23388;SDS011;11867;51.198;11.966;2022-11-02T19:49:45;5.22;;;2.28;;
23388;SDS011;11867;51.198;11.966;2022-11-02T19:54:47;7.80;;;2.70;;
23388;SDS011;11867;51.198;11.966;2022-11-02T19:59:51;8.82;;;2.40;;
23388;SDS011;11867;51.198;11.966;2022-11-02T20:04:54;4.05;;;2.05;;
23388;SDS011;11867;51.198;11.966;2022-11-02T20:09:56;8.20;;;3.90;;
23388;SDS011;11867;51.198;11.966;2022-11-02T20:15:01;8.73;;;3.47;;
23388;SDS011;11867;51.198;11.966;2022-11-02T20:20:05;6.45;;;2.38;;
23388;SDS011;11867;51.198;11.966;2022-11-02T20:25:08;7.38;;;2.58;;
23388;SDS011;11867;51.198;11.966;2022-11-02T20:30:12;10.45;;;4.03;;
23388;SDS011;11867;51.198;11.966;2022-11-02T20:35:15;12.80;;;4.95;;
23388;SDS011;11867;51.198;11.966;2022-11-02T20:40:22;8.65;;;3.90;;
23388;SDS011;11867;51.198;11.966;2022-11-02T20:50:31;9.35;;;3.60;;
23388;SDS011;11867;51.198;11.966;2022-11-02T20:55:34;8.63;;;4.00;;
23388;SDS011;11867;51.198;11.966;2022-11-02T21:00:38;9.80;;;3.78;;
23388;SDS011;11867;51.198;11.966;2022-11-02T21:05:40;7.00;;;4.07;;
23388;SDS011;11867;51.198;11.966;2022-11-02T21:10:44;7.55;;;3.80;;
23388;SDS011;11867;51.198;11.966;2022-11-02T21:16:02;9.82;;;3.85;;
23388;SDS011;11867;51.198;11.966;2022-11-02T21:21:05;8.38;;;3.88;;
23388;SDS011;11867;51.198;11.966;2022-11-02T21:31:15;7.93;;;3.10;;
23388;SDS011;11867;51.198;11.966;2022-11-02T21:36:20;8.73;;;3.40;;
23388;SDS011;11867;51.198;11.966;2022-11-02T21:41:23;8.45;;;2.95;;
23388;SDS011;11867;51.198;11.966;2022-11-02T21:46:30;5.90;;;3.13;;
23388;SDS011;11867;51.198;11.966;2022-11-02T21:51:33;5.70;;;2.92;;
23388;SDS011;11867;51.198;11.966;2022-11-02T21:56:37;4.78;;;2.22;;
23388;SDS011;11867;51.198;11.966;2022-11-02T22:01:41;8.27;;;2.42;;
23388;SDS011;11867;51.198;11.966;2022-11-02T22:06:49;12.75;;;2.78;;
23388;SDS011;11867;51.198;11.966;2022-11-02T22:11:52;7.30;;;2.60;;
23388;SDS011;11867;51.198;11.966;2022-11-02T22:17:10;6.75;;;2.50;;
23388;SDS011;11867;51.198;11.966;2022-11-02T22:22:33;5.50;;;2.30;;
23388;SDS011;11867;51.198;11.966;2022-11-02T22:27:36;9.93;;;2.67;;
23388;SDS011;11867;51.198;11.966;2022-11-02T22:32:40;4.60;;;2.40;;
23388;SDS011;11867;51.198;11.966;2022-11-02T22:37:42;5.63;;;2.53;;
23388;SDS011;11867;51.198;11.966;2022-11-02T22:43:08;10.50;;;2.60;;
23388;SDS011;11867;51.198;11.966;2022-11-02T22:48:12;3.83;;;2.15;;
23388;SDS011;11867;51.198;11.966;2022-11-02T22:53:15;4.88;;;1.50;;
23388;SDS011;11867;51.198;11.966;2022-11-02T22:58:18;8.20;;;2.55;;
23388;SDS011;11867;51.198;11.966;2022-11-02T23:03:22;7.97;;;2.60;;
23388;SDS011;11867;51.198;11.966;2022-11-02T23:13:33;9.52;;;3.95;;
23388;SDS011;11867;51.198;11.966;2022-11-02T23:18:37;6.55;;;3.08;;
23388;SDS011;11867;51.198;11.966;2022-11-02T23:23:53;11.70;;;4.43;;
23388;SDS011;11867;51.198;11.966;2022-11-02T23:29:13;10.60;;;4.20;;
23388;SDS011;11867;51.198;11.966;2022-11-02T23:34:35;10.27;;;4.50;;
23388;SDS011;11867;51.198;11.966;2022-11-02T23:39:38;5.35;;;3.10;;
23388;SDS011;11867;51.198;11.966;2022-11-02T23:44:50;8.18;;;3.20;;
23388;SDS011;11867;51.198;11.966;2022-11-02T23:49:54;12.05;;;3.42;;
23388;SDS011;11867;51.198;11.966;2022-11-02T23:54:56;9.65;;;2.92;;
